createdAt,value
2018-03-16T09:31:59.885Z,90.43
2018-03-16T09:32:59.806Z,89.95
2018-03-16T09:34:53.150Z,90.05
2018-03-16T09:35:53.107Z,89.95
2018-03-16T09:37:46.489Z,90.24
2018-03-16T09:38:46.401Z,89.76
2018-03-16T09:40:39.722Z,89.67
2018-03-16T09:41:39.705Z,89.58
2018-03-16T09:43:33.065Z,89.39
2018-03-16T09:44:32.985Z,90.24
2018-03-16T09:46:26.315Z,89.86
2018-03-16T09:47:26.286Z,89.20
2018-03-16T09:49:20.660Z,89.67
2018-03-16T09:50:20.582Z,88.72
2018-03-16T09:52:13.965Z,89.76
2018-03-16T09:53:13.877Z,89.10
2018-03-16T09:55:07.206Z,89.06
2018-03-16T09:56:07.178Z,89.06
2018-03-16T09:58:01.551Z,89.25
2018-03-16T09:59:01.472Z,88.96
2018-03-16T10:00:54.802Z,89.43
2018-03-16T10:01:54.769Z,90.00
2018-03-16T10:03:48.144Z,89.34
2018-03-16T10:04:48.069Z,89.81
2018-03-16T10:06:41.458Z,89.62
2018-03-16T10:07:41.383Z,88.96
2018-03-16T10:09:35.746Z,88.58
2018-03-16T10:10:35.667Z,88.48
2018-03-16T10:12:28.997Z,88.29
2018-03-16T10:13:28.965Z,88.87
2018-03-16T10:15:22.340Z,89.25
2018-03-16T10:16:22.266Z,88.87
2018-03-16T10:18:15.637Z,89.62
2018-03-16T10:19:15.562Z,89.81
2018-03-16T10:21:08.891Z,88.96
2018-03-16T10:22:08.862Z,88.48
2018-03-16T10:24:02.245Z,88.01
2018-03-16T10:25:02.168Z,87.54
2018-03-16T10:26:55.507Z,87.54
2018-03-16T10:27:55.478Z,87.73
2018-03-16T10:29:48.853Z,89.15
2018-03-16T10:30:48.776Z,88.96
2018-03-16T10:32:42.139Z,88.87
2018-03-16T10:33:42.075Z,89.25
2018-03-16T10:35:35.450Z,89.25
2018-03-16T10:36:35.374Z,89.25
2018-03-16T10:38:28.740Z,89.43
2018-03-16T10:39:28.709Z,88.87
2018-03-16T10:41:22.086Z,89.72
2018-03-16T10:42:22.009Z,90.19
2018-03-16T10:44:15.367Z,88.96
2018-03-16T10:45:15.313Z,89.06
2018-03-16T10:47:08.694Z,88.39
2018-03-16T10:48:08.609Z,88.58
2018-03-16T10:50:03.393Z,88.20
2018-03-16T10:51:02.982Z,89.06
2018-03-16T10:52:56.237Z,88.68
2018-03-16T10:53:56.208Z,88.01
2018-03-16T10:55:49.581Z,88.77
2018-03-16T10:56:49.505Z,89.25
2018-03-16T10:57:49.479Z,88.62
2018-03-16T10:58:49.456Z,88.39
2018-03-16T10:59:49.436Z,88.48
2018-03-16T11:00:49.408Z,89.20
2018-03-16T11:01:49.381Z,89.10
2018-03-16T11:02:49.361Z,88.72
2018-03-16T11:03:49.328Z,88.43
2018-03-16T11:04:49.306Z,88.43
2018-03-16T11:05:49.282Z,88.43
2018-03-16T11:06:49.255Z,88.39
2018-03-16T11:07:49.233Z,88.01
2018-03-16T11:08:49.204Z,87.49
2018-03-16T11:09:49.187Z,88.10
2018-03-16T11:10:49.157Z,88.62
2018-03-16T11:11:49.129Z,88.68
2018-03-16T11:12:49.106Z,88.53
2018-03-16T11:13:49.081Z,88.10
2018-03-16T11:14:49.060Z,88.39
2018-03-16T11:15:49.028Z,88.10
2018-03-16T11:16:49.006Z,88.48
2018-03-16T11:17:48.986Z,88.39
2018-03-16T11:18:48.955Z,89.15
2018-03-16T11:19:48.933Z,88.96
2018-03-16T11:20:48.915Z,89.34
2018-03-16T11:21:48.880Z,88.96
2018-03-16T11:22:48.860Z,88.39
2018-03-16T11:23:48.830Z,88.20
2018-03-16T11:24:48.809Z,88.06
2018-03-16T11:25:48.782Z,88.62
2018-03-16T11:26:48.763Z,88.48
2018-03-16T11:27:48.732Z,88.15
2018-03-16T11:28:48.706Z,88.43
2018-03-16T11:29:48.684Z,89.00
2018-03-16T11:30:48.659Z,89.43
2018-03-16T11:31:48.636Z,89.20
2018-03-16T11:32:48.607Z,88.53
2018-03-16T11:33:48.590Z,88.53
2018-03-16T11:34:48.559Z,87.68
2018-03-16T11:35:48.531Z,87.68
2018-03-16T11:36:48.509Z,87.49
2018-03-16T11:37:48.483Z,87.49
2018-03-16T11:38:48.463Z,87.77
2018-03-16T11:39:48.430Z,88.20
2018-03-16T11:40:48.410Z,87.92
2018-03-16T11:41:48.388Z,88.15
2018-03-16T11:42:48.361Z,88.53
2018-03-16T11:43:48.335Z,88.58
2018-03-16T11:44:48.307Z,87.92
2018-03-16T11:45:48.289Z,87.45
2018-03-16T11:46:48.257Z,87.45
2018-03-16T11:47:48.233Z,87.06
2018-03-16T11:48:48.207Z,87.35
2018-03-16T11:49:48.182Z,87.73
2018-03-16T11:50:48.166Z,87.54
2018-03-16T11:51:48.134Z,87.58
2018-03-16T11:52:48.108Z,87.58
2018-03-16T11:53:48.084Z,87.63
2018-03-16T11:54:48.064Z,87.63
2018-03-16T11:55:48.041Z,87.54
2018-03-16T11:56:48.007Z,87.54
2018-03-16T11:57:47.988Z,87.92
2018-03-16T11:58:47.963Z,87.82
2018-03-16T11:59:47.938Z,87.63
2018-03-16T12:00:47.923Z,86.87
2018-03-16T12:01:47.893Z,87.35
2018-03-16T12:02:47.859Z,87.73
2018-03-16T12:03:47.840Z,87.82
2018-03-16T12:04:47.807Z,87.73
2018-03-16T12:05:47.784Z,88.20
2018-03-16T12:06:47.759Z,87.45
2018-03-16T12:07:47.731Z,87.82
2018-03-16T12:08:47.708Z,88.20
2018-03-16T12:09:47.682Z,88.48
2018-03-16T12:10:47.668Z,88.48
2018-03-16T12:11:47.632Z,88.20
2018-03-16T12:12:47.608Z,87.45
2018-03-16T12:13:47.583Z,87.82
2018-03-16T12:14:47.558Z,87.06
2018-03-16T12:15:47.541Z,86.87
2018-03-16T12:16:47.508Z,86.97
2018-03-16T12:17:47.486Z,87.82
2018-03-16T12:18:47.458Z,87.82
2018-03-16T12:19:47.435Z,88.10
2018-03-16T12:20:47.409Z,88.01
2018-03-16T12:21:47.383Z,87.54
2018-03-16T12:22:47.359Z,88.01
2018-03-16T12:23:47.334Z,88.10
2018-03-16T12:24:47.340Z,88.68
2018-03-16T12:25:47.284Z,88.48
2018-03-16T12:26:47.258Z,89.34
2018-03-16T12:27:47.233Z,89.34
2018-03-16T12:28:49.951Z,88.48
2018-03-16T12:29:47.184Z,88.96
2018-03-16T12:30:47.158Z,89.25
2018-03-16T12:31:47.133Z,87.92
2018-03-16T12:32:47.107Z,87.45
2018-03-16T12:33:47.083Z,86.97
2018-03-16T12:34:47.058Z,87.73
2018-03-16T12:35:47.034Z,87.73
2018-03-16T12:36:47.007Z,87.54
2018-03-16T12:37:46.982Z,87.54
2018-03-16T12:38:46.965Z,87.63
2018-03-16T12:39:46.937Z,87.63
2018-03-16T12:40:46.908Z,87.16
2018-03-16T12:41:46.885Z,86.78
2018-03-16T12:42:46.858Z,86.97
2018-03-16T12:43:46.834Z,87.06
2018-03-16T12:44:46.808Z,87.06
2018-03-16T12:45:46.782Z,86.97
2018-03-16T12:46:46.771Z,86.68
2018-03-16T12:47:46.733Z,86.97
2018-03-16T12:48:46.708Z,86.87
2018-03-16T12:49:46.683Z,86.68
2018-03-16T12:50:46.678Z,86.11
2018-03-16T12:51:46.636Z,86.30
2018-03-16T12:52:46.608Z,86.78
2018-03-16T12:53:46.584Z,86.21
2018-03-16T12:54:46.566Z,86.59
2018-03-16T12:55:46.538Z,87.16
2018-03-16T12:56:46.507Z,87.92
2018-03-16T12:57:46.485Z,86.59
2018-03-16T12:58:46.461Z,86.87
2018-03-16T12:59:46.440Z,86.78
2018-03-16T13:00:46.418Z,87.54
2018-03-16T13:01:46.383Z,87.54
2018-03-16T13:02:47.215Z,87.92
2018-03-16T13:03:46.335Z,87.25
2018-03-16T13:04:46.310Z,87.16
2018-03-16T13:05:46.283Z,86.87
2018-03-16T13:06:46.286Z,86.30
2018-03-16T13:07:46.233Z,86.97
2018-03-16T13:08:46.206Z,87.06
2018-03-16T13:09:46.210Z,86.68
2018-03-16T13:10:46.156Z,86.68
2018-03-16T13:11:46.129Z,87.54
2018-03-16T13:12:46.104Z,87.73
2018-03-16T13:13:46.088Z,87.45
2018-03-16T13:14:46.117Z,87.54
2018-03-16T13:15:46.035Z,87.63
2018-03-16T13:16:46.005Z,87.82
2018-03-16T13:17:45.994Z,87.82
2018-03-16T13:18:45.955Z,87.45
2018-03-16T13:19:45.929Z,87.73
2018-03-16T13:20:45.961Z,87.45
2018-03-16T13:21:45.878Z,88.01
2018-03-16T13:22:45.853Z,88.10
2018-03-16T13:23:45.827Z,88.39
2018-03-16T13:24:45.803Z,87.92
2018-03-16T13:25:45.781Z,87.54
2018-03-16T13:26:45.770Z,87.82
2018-03-16T13:27:45.728Z,87.73
2018-03-16T13:28:45.702Z,87.82
2018-03-16T13:29:45.716Z,87.63
2018-03-16T13:30:45.667Z,87.63
2018-03-16T13:31:45.632Z,86.97
2018-03-16T13:32:45.601Z,87.16
2018-03-16T13:33:45.578Z,86.87
2018-03-16T13:34:45.551Z,86.78
2018-03-16T13:35:45.568Z,87.35
2018-03-16T13:36:45.503Z,87.82
2018-03-16T13:37:45.476Z,87.73
2018-03-16T13:38:45.451Z,88.10
2018-03-16T13:39:45.425Z,88.01
2018-03-16T13:40:45.442Z,87.92
2018-03-16T13:41:45.400Z,87.54
2018-03-16T13:42:45.418Z,87.73
2018-03-16T13:43:45.324Z,87.54
2018-03-16T13:44:45.299Z,87.92
2018-03-16T13:45:45.276Z,88.20
2018-03-16T13:46:45.248Z,87.73
2018-03-16T13:47:45.225Z,88.20
2018-03-16T13:48:45.198Z,87.73
2018-03-16T13:49:45.179Z,87.54
2018-03-16T13:50:45.150Z,87.54
2018-03-16T13:51:45.121Z,87.54
2018-03-16T13:52:45.096Z,87.63
2018-03-16T13:53:45.078Z,88.16
2018-03-16T13:54:45.044Z,88.35
2018-03-16T13:55:45.032Z,87.82
2018-03-16T13:56:45.059Z,88.10
2018-03-16T13:57:45.007Z,87.49
2018-03-16T13:58:44.946Z,86.68
2018-03-16T13:59:44.918Z,87.49
2018-03-16T14:00:44.895Z,87.68
2018-03-16T14:01:44.864Z,87.68
2018-03-16T14:02:44.841Z,87.40
2018-03-16T14:03:44.816Z,86.74
2018-03-16T14:04:44.791Z,86.35
2018-03-16T14:05:44.764Z,86.45
2018-03-16T14:06:44.760Z,86.35
2018-03-16T14:07:44.712Z,87.12
2018-03-16T14:08:44.687Z,86.45
2018-03-16T14:09:44.672Z,86.26
2018-03-16T14:10:44.660Z,86.55
2018-03-16T14:11:44.611Z,86.74
2018-03-16T14:12:44.625Z,87.40
2018-03-16T14:13:44.559Z,87.77
2018-03-16T14:14:44.533Z,87.02
2018-03-16T14:15:44.514Z,86.93
2018-03-16T14:16:44.487Z,87.30
2018-03-16T14:17:44.520Z,87.49
2018-03-16T14:18:44.497Z,87.49
2018-03-16T14:19:44.449Z,87.02
2018-03-16T14:20:44.378Z,87.30
2018-03-16T14:21:44.356Z,87.21
2018-03-16T14:22:44.417Z,87.68
2018-03-16T14:23:44.336Z,87.49
2018-03-16T14:24:44.302Z,87.49
2018-03-16T14:25:44.258Z,87.77
2018-03-16T14:26:44.228Z,87.97
2018-03-16T14:27:44.198Z,87.68
2018-03-16T14:28:44.178Z,87.77
2018-03-16T14:29:44.165Z,87.97
2018-03-16T14:30:44.133Z,88.25
2018-03-16T14:31:44.103Z,88.06
2018-03-16T14:32:44.069Z,88.25
2018-03-16T14:33:44.058Z,87.40
2018-03-16T14:34:44.022Z,87.87
2018-03-16T14:35:43.991Z,87.12
2018-03-16T14:36:44.034Z,86.83
2018-03-16T14:37:44.011Z,87.49
2018-03-16T14:38:43.915Z,87.68
2018-03-16T14:39:43.930Z,87.59
2018-03-16T14:40:43.863Z,88.63
2018-03-16T14:41:43.874Z,88.16
2018-03-16T14:42:43.813Z,87.68
2018-03-16T14:43:43.793Z,87.02
2018-03-16T14:44:43.769Z,87.21
2018-03-16T14:45:43.733Z,86.93
2018-03-16T14:46:43.725Z,87.21
2018-03-16T14:47:43.739Z,87.68
2018-03-16T14:48:43.709Z,87.87
2018-03-16T14:49:43.638Z,87.59
2018-03-16T14:50:43.609Z,87.68
2018-03-16T14:51:43.660Z,87.59
2018-03-16T14:52:43.617Z,87.77
2018-03-16T14:53:43.528Z,87.40
2018-03-16T14:54:43.501Z,87.68
2018-03-16T14:55:43.476Z,87.77
2018-03-16T14:56:43.449Z,87.59
2018-03-16T14:57:43.469Z,86.64
2018-03-16T14:58:43.408Z,86.74
2018-03-16T14:59:43.432Z,87.49
2018-03-16T15:00:44.186Z,87.77
2018-03-16T15:01:43.341Z,87.68
2018-03-16T15:02:43.294Z,87.59
2018-03-16T15:03:43.271Z,88.16
2018-03-16T15:04:43.242Z,88.16
2018-03-16T15:05:43.227Z,87.77
2018-03-16T15:06:43.235Z,86.64
2018-03-16T15:07:43.163Z,87.30
2018-03-16T15:08:43.138Z,87.49
2018-03-16T15:09:43.116Z,87.59
2018-03-16T15:10:43.085Z,87.68
2018-03-16T15:11:43.059Z,87.49
2018-03-16T15:12:43.043Z,87.21
2018-03-16T15:13:43.028Z,87.40
2018-03-16T15:14:43.026Z,86.93
2018-03-16T15:15:42.990Z,86.79
2018-03-16T15:16:42.937Z,87.97
2018-03-16T15:17:42.903Z,87.59
2018-03-16T15:18:42.878Z,87.59
2018-03-16T15:19:42.850Z,87.68
2018-03-16T15:20:42.832Z,87.68
2018-03-16T15:21:42.829Z,88.35
2018-03-16T15:22:43.259Z,88.11
2018-03-16T15:23:43.527Z,87.97
2018-03-16T15:24:43.994Z,88.06
2018-03-16T15:25:42.737Z,88.40
2018-03-16T15:26:44.171Z,87.59
2018-03-16T15:27:43.322Z,86.79
2018-03-16T15:28:43.987Z,86.60
2018-03-16T15:29:42.605Z,87.16
2018-03-16T15:30:42.565Z,87.64
2018-03-16T15:31:42.538Z,86.88
2018-03-16T15:32:42.733Z,87.45
2018-03-16T15:33:42.490Z,87.54
2018-03-16T15:34:42.468Z,87.26
2018-03-16T15:35:43.017Z,86.98
2018-03-16T15:36:42.407Z,86.88
2018-03-16T15:37:42.383Z,86.69
2018-03-16T15:38:42.355Z,86.69
2018-03-16T15:39:42.328Z,86.79
2018-03-16T15:40:42.304Z,86.88
2018-03-16T15:41:42.350Z,87.64
2018-03-16T15:42:42.273Z,87.64
2018-03-16T15:43:42.223Z,87.54
2018-03-16T15:44:42.270Z,87.73
2018-03-16T15:45:42.176Z,87.54
2018-03-16T15:46:42.159Z,87.73
2018-03-16T15:47:42.119Z,87.16
2018-03-16T15:48:42.091Z,87.64
2018-03-16T15:49:42.068Z,87.64
2018-03-16T15:50:42.043Z,88.11
2018-03-16T15:51:42.015Z,88.02
2018-03-16T15:52:42.014Z,87.73
2018-03-16T15:53:41.964Z,88.21
2018-03-16T15:54:41.987Z,88.40
2018-03-16T15:55:41.962Z,87.92
2018-03-16T15:56:41.883Z,87.35
2018-03-16T15:57:41.950Z,87.64
2018-03-16T15:58:41.833Z,87.64
2018-03-16T15:59:41.805Z,87.26
2018-03-16T16:00:41.778Z,86.50
2018-03-16T16:01:41.754Z,86.88
2018-03-16T16:02:41.727Z,86.98
2018-03-16T16:03:41.701Z,87.73
2018-03-16T16:04:41.675Z,87.64
2018-03-16T16:05:41.647Z,88.11
2018-03-16T16:06:41.625Z,88.30
2018-03-16T16:07:41.593Z,88.02
2018-03-16T16:08:41.572Z,87.83
2018-03-16T16:09:41.545Z,88.40
2018-03-16T16:10:41.513Z,88.11
2018-03-16T16:11:41.489Z,88.59
2018-03-16T16:12:41.469Z,88.02
2018-03-16T16:13:41.437Z,86.60
2018-03-16T16:14:41.416Z,86.88
2018-03-16T16:15:41.410Z,86.31
2018-03-16T16:16:41.380Z,86.88
2018-03-16T16:17:41.335Z,87.26
2018-03-16T16:18:41.309Z,86.88
2018-03-16T16:19:41.337Z,86.69
2018-03-16T16:20:41.254Z,87.26
2018-03-16T16:21:41.227Z,87.45
2018-03-16T16:22:41.201Z,87.07
2018-03-16T16:23:41.176Z,87.07
2018-03-16T16:24:41.210Z,86.79
2018-03-16T16:25:41.123Z,86.41
2018-03-16T16:26:41.094Z,85.84
2018-03-16T16:27:41.122Z,86.22
2018-03-16T16:28:41.042Z,85.46
2018-03-16T16:29:41.019Z,86.12
2018-03-16T16:30:41.028Z,85.46
2018-03-16T16:31:40.970Z,85.93
2018-03-16T16:32:40.939Z,85.65
2018-03-16T16:33:40.947Z,85.17
2018-03-16T16:34:41.709Z,86.12
2018-03-16T16:35:40.914Z,86.50
2018-03-16T16:36:40.831Z,86.12
2018-03-16T16:37:40.817Z,86.12
2018-03-16T16:38:40.777Z,85.46
2018-03-16T16:39:40.750Z,85.74
2018-03-16T16:40:40.724Z,85.46
2018-03-16T16:41:40.696Z,86.88
2018-03-16T16:42:40.682Z,86.79
2018-03-16T16:43:40.645Z,86.50
2018-03-16T16:44:40.620Z,86.60
2018-03-16T16:45:40.591Z,86.60
2018-03-16T16:46:40.570Z,87.35
2018-03-16T16:47:40.587Z,87.12
2018-03-16T16:48:40.512Z,86.98
2018-03-16T16:49:40.485Z,87.26
2018-03-16T16:50:40.459Z,87.54
2018-03-16T16:51:40.482Z,87.07
2018-03-16T16:52:40.408Z,87.02
2018-03-16T16:53:40.379Z,86.08
2018-03-16T16:54:40.352Z,86.79
2018-03-16T16:55:40.326Z,86.93
2018-03-16T16:56:40.298Z,87.16
2018-03-16T16:57:40.316Z,87.26
2018-03-16T16:58:40.257Z,86.98
2018-03-16T16:59:40.252Z,87.07
2018-03-16T17:00:40.215Z,86.41
2018-03-16T17:01:40.242Z,86.65
2018-03-16T17:02:40.738Z,86.74
2018-03-16T17:03:40.111Z,85.89
2018-03-16T17:04:40.085Z,85.99
2018-03-16T17:05:40.059Z,86.27
2018-03-16T17:06:40.091Z,85.99
2018-03-16T17:07:40.049Z,86.18
2018-03-16T17:08:40.024Z,86.65
2018-03-16T17:09:39.951Z,86.27
2018-03-16T17:10:39.938Z,86.74
2018-03-16T17:21:06.056Z,85.42
2018-03-16T17:22:06.003Z,85.42
2018-03-16T17:23:59.325Z,85.23
2018-03-16T17:24:59.283Z,86.18
2018-03-16T17:26:52.643Z,85.99
2018-03-16T17:27:52.548Z,86.36
2018-03-16T17:29:45.921Z,86.08
2018-03-16T17:30:45.842Z,87.02
2018-03-16T17:32:39.216Z,86.65
2018-03-16T17:33:39.153Z,85.99
2018-03-16T17:35:32.537Z,86.46
2018-03-16T17:36:32.436Z,86.08
2018-03-16T17:38:25.849Z,86.18
2018-03-16T17:39:25.735Z,86.08
2018-03-16T17:41:20.084Z,86.65
2018-03-16T17:42:20.050Z,86.36
2018-03-16T17:44:13.420Z,86.27
2018-03-16T17:45:13.350Z,86.36
2018-03-16T17:47:06.677Z,86.27
2018-03-16T17:48:06.669Z,86.36
2018-03-16T17:50:00.021Z,85.23
2018-03-16T17:50:59.942Z,85.61
2018-03-16T17:52:53.271Z,85.61
2018-03-16T17:53:53.239Z,85.23
2018-03-16T17:55:46.613Z,84.75
2018-03-16T17:56:46.536Z,85.04
2018-03-16T17:58:39.916Z,85.94
2018-03-16T17:59:39.832Z,86.55
2018-03-16T18:01:33.161Z,86.36
2018-03-16T18:02:33.132Z,86.51
2018-03-16T18:04:27.512Z,85.19
2018-03-16T18:05:27.430Z,86.13
2018-03-16T18:07:20.766Z,86.04
2018-03-16T18:08:20.774Z,85.70
2018-03-16T18:10:14.120Z,86.13
2018-03-16T18:11:14.042Z,86.22
2018-03-16T18:13:11.736Z,86.32
2018-03-16T18:14:11.708Z,86.60
2018-03-16T18:16:09.760Z,86.70
2018-03-16T18:17:09.678Z,87.27
2018-03-16T18:19:02.999Z,87.27
2018-03-16T18:20:02.969Z,87.55
2018-03-16T18:21:58.332Z,86.41
2018-03-16T18:22:58.256Z,86.32
2018-03-16T18:24:52.699Z,85.66
2018-03-16T18:25:52.562Z,86.13
2018-03-16T18:27:46.942Z,86.70
2018-03-16T18:28:46.866Z,86.79
2018-03-16T18:30:40.356Z,87.08
2018-03-16T18:31:40.164Z,86.79
2018-03-16T18:33:33.492Z,86.22
2018-03-16T18:34:33.463Z,86.13
2018-03-16T18:36:26.847Z,85.85
2018-03-16T18:37:26.762Z,86.32
2018-03-16T18:39:20.131Z,87.17
2018-03-16T18:40:20.057Z,86.89
2018-03-16T18:41:20.029Z,86.79
2018-03-16T18:42:20.001Z,86.60
2018-03-16T18:43:19.976Z,86.13
2018-03-16T18:44:19.948Z,86.04
2018-03-16T18:45:19.920Z,86.13
2018-03-16T18:46:19.892Z,85.75
2018-03-16T18:47:19.863Z,85.94
2018-03-16T18:48:19.842Z,86.13
2018-03-16T18:49:19.812Z,84.90
2018-03-16T18:50:19.790Z,84.81
2018-03-16T18:51:19.758Z,85.57
2018-03-16T18:52:19.781Z,85.38
2018-03-16T18:53:19.702Z,85.66
2018-03-16T18:54:19.674Z,85.38
2018-03-16T18:55:19.665Z,86.22
2018-03-16T18:56:19.632Z,86.13
2018-03-16T18:57:19.592Z,84.90
2018-03-16T18:58:19.564Z,85.75
2018-03-16T18:59:19.536Z,85.00
2018-03-16T19:00:19.510Z,85.66
2018-03-16T19:01:19.485Z,85.38
2018-03-16T19:02:19.454Z,85.57
2018-03-16T19:03:19.430Z,85.94
2018-03-16T19:04:19.399Z,86.22
2018-03-16T19:05:19.421Z,85.75
2018-03-16T19:06:19.346Z,84.90
2018-03-16T19:07:19.317Z,85.19
2018-03-16T19:08:19.290Z,84.81
2018-03-16T19:09:19.284Z,85.28
2018-03-16T19:10:19.238Z,84.71
2018-03-16T19:11:19.206Z,84.81
2018-03-16T19:12:19.179Z,84.61
2018-03-16T19:13:19.151Z,85.09
2018-03-16T19:14:19.130Z,85.09
2018-03-16T19:15:19.097Z,85.00
2018-03-16T19:16:19.068Z,85.38
2018-03-16T19:17:19.043Z,85.57
2018-03-16T19:18:19.017Z,84.90
2018-03-16T19:19:18.999Z,85.19
2018-03-16T19:20:19.687Z,85.28
2018-03-16T19:21:19.201Z,85.57
2018-03-16T19:22:18.934Z,84.90
2018-03-16T19:23:18.919Z,84.61
2018-03-16T19:24:18.862Z,84.42
2018-03-16T19:25:18.860Z,84.61
2018-03-16T19:26:18.805Z,85.09
2018-03-16T19:27:19.163Z,85.00
2018-03-16T19:28:18.746Z,84.33
2018-03-16T19:29:18.730Z,83.86
2018-03-16T19:30:18.685Z,84.23
2018-03-16T19:31:18.654Z,84.42
2018-03-16T19:32:18.664Z,84.61
2018-03-16T19:33:20.240Z,84.42
2018-03-16T19:34:18.642Z,84.52
2018-03-16T19:35:19.623Z,84.61
2018-03-16T19:36:18.752Z,84.81
2018-03-16T19:37:18.492Z,84.71
2018-03-16T19:38:18.465Z,84.33
2018-03-16T19:39:18.473Z,84.71
2018-03-16T19:40:18.418Z,84.05
2018-03-16T19:41:19.942Z,83.86
2018-03-16T19:42:18.382Z,84.33
2018-03-16T19:43:18.404Z,83.76
2018-03-16T19:44:18.321Z,83.29
2018-03-16T19:45:18.368Z,84.61
2018-03-16T19:46:18.279Z,84.05
2018-03-16T19:47:18.258Z,84.23
2018-03-16T19:48:18.265Z,83.95
2018-03-16T19:49:18.199Z,83.58
2018-03-16T19:50:18.163Z,83.48
2018-03-16T19:51:18.519Z,83.29
2018-03-16T19:52:18.102Z,83.10
2018-03-16T19:53:18.062Z,83.48
2018-03-16T19:54:18.052Z,84.33
2018-03-16T19:55:18.022Z,83.86
2018-03-16T19:56:17.987Z,84.14
2018-03-16T19:57:17.977Z,84.33
2018-03-16T19:58:18.758Z,83.29
2018-03-16T19:59:17.905Z,83.29
2018-03-16T20:00:17.952Z,83.86
2018-03-16T20:01:17.875Z,84.61
2018-03-16T20:02:17.860Z,84.81
2018-03-16T20:03:18.768Z,84.61
2018-03-16T20:04:18.817Z,84.42
2018-03-16T20:05:17.751Z,84.61
2018-03-16T20:06:17.697Z,83.86
2018-03-16T20:07:17.672Z,83.86
2018-03-16T20:08:17.692Z,84.90
2018-03-16T20:09:17.629Z,84.33
2018-03-16T20:10:17.611Z,83.29
2018-03-16T20:11:17.574Z,83.67
2018-03-16T20:12:17.600Z,83.95
2018-03-16T20:13:17.540Z,83.95
2018-03-16T20:14:17.470Z,83.48
2018-03-16T20:15:17.473Z,83.20
2018-03-16T20:16:17.467Z,82.91
2018-03-16T20:17:17.449Z,82.82
2018-03-16T20:18:17.412Z,83.01
2018-03-16T20:19:17.384Z,82.25
2018-03-16T20:20:17.342Z,82.72
2018-03-16T20:21:17.319Z,83.29
2018-03-16T20:22:17.293Z,83.48
2018-03-16T20:23:17.222Z,83.58
2018-03-16T20:24:17.191Z,83.39
2018-03-16T20:25:17.220Z,82.91
2018-03-16T20:26:17.183Z,82.91
2018-03-16T20:27:17.173Z,83.10
2018-03-16T20:28:17.144Z,83.48
2018-03-16T20:29:17.084Z,83.39
2018-03-16T20:30:17.051Z,84.23
2018-03-16T20:31:17.043Z,83.48
2018-03-16T20:32:17.004Z,83.39
2018-03-16T20:33:16.943Z,83.39
2018-03-16T20:34:16.939Z,82.91
2018-03-16T20:35:16.893Z,82.72
2018-03-16T20:36:16.947Z,82.91
2018-03-16T20:37:16.857Z,82.82
2018-03-16T20:38:16.881Z,81.96
2018-03-16T20:39:16.826Z,81.96
2018-03-16T20:40:16.795Z,82.91
2018-03-16T20:41:16.771Z,82.82
2018-03-16T20:42:16.750Z,82.06
2018-03-16T20:43:16.671Z,82.44
2018-03-16T20:44:16.636Z,82.15
2018-03-16T20:45:16.608Z,82.25
2018-03-16T20:46:16.603Z,81.87
2018-03-16T20:47:16.552Z,81.68
2018-03-16T20:48:16.539Z,81.49
2018-03-16T20:49:16.498Z,82.06
2018-03-16T20:50:16.518Z,80.88
2018-03-16T20:51:16.451Z,80.79
2018-03-16T20:52:16.414Z,81.17
2018-03-16T20:53:16.385Z,80.98
2018-03-16T20:54:16.371Z,80.69
2018-03-16T20:55:16.349Z,80.88
2018-03-16T20:56:16.358Z,81.93
2018-03-16T20:57:16.297Z,81.74
2018-03-16T20:58:16.339Z,82.02
2018-03-16T20:59:16.295Z,81.26
2018-03-16T21:00:16.221Z,81.45
2018-03-16T21:01:16.174Z,82.02
2018-03-16T21:02:16.186Z,81.55
2018-03-16T21:03:16.106Z,81.93
2018-03-16T21:04:16.092Z,81.83
2018-03-16T21:05:16.070Z,81.07
2018-03-16T21:06:16.028Z,81.07
2018-03-16T21:07:15.992Z,81.40
2018-03-16T21:08:15.970Z,81.07
2018-03-16T21:09:15.938Z,81.17
2018-03-16T21:10:15.914Z,80.22
2018-03-16T21:11:15.892Z,80.60
2018-03-16T21:12:15.878Z,81.17
2018-03-16T21:13:15.826Z,81.55
2018-03-16T21:14:15.798Z,81.64
2018-03-16T21:15:15.771Z,82.02
2018-03-16T21:16:15.744Z,81.64
2018-03-16T21:17:15.716Z,81.74
2018-03-16T21:18:15.687Z,81.55
2018-03-16T21:19:15.659Z,82.40
2018-03-16T21:20:15.632Z,82.21
2018-03-16T21:21:15.603Z,81.83
2018-03-16T21:22:15.575Z,81.74
2018-03-16T21:23:15.552Z,81.64
2018-03-16T21:24:15.521Z,81.45
2018-03-16T21:25:15.490Z,81.64
2018-03-16T21:26:15.465Z,81.83
2018-03-16T21:27:15.452Z,81.07
2018-03-16T21:28:15.433Z,79.85
2018-03-16T21:29:15.382Z,80.79
2018-03-16T21:30:15.361Z,80.69
2018-03-16T21:31:15.324Z,80.98
2018-03-16T21:32:15.296Z,81.02
2018-03-16T21:33:15.269Z,80.79
2018-03-16T21:34:15.310Z,80.88
2018-03-16T21:35:15.211Z,80.32
2018-03-16T21:36:15.183Z,80.51
2018-03-16T21:37:15.158Z,80.22
2018-03-16T21:38:15.131Z,79.94
2018-03-16T21:39:15.100Z,79.88
2018-03-16T21:40:15.073Z,80.36
2018-03-16T21:41:15.046Z,80.69
2018-03-16T21:42:15.051Z,80.60
2018-03-16T21:43:14.988Z,80.04
2018-03-16T21:44:14.981Z,80.13
2018-03-16T21:45:14.943Z,80.60
2018-03-16T21:46:14.905Z,79.37
2018-03-16T21:47:14.907Z,79.47
2018-03-16T21:48:14.850Z,79.18
2018-03-16T21:49:14.863Z,79.28
2018-03-16T21:50:14.794Z,78.61
2018-03-16T21:51:14.779Z,78.23
2018-03-16T21:52:14.774Z,78.33
2018-03-16T21:53:14.717Z,78.23
2018-03-16T21:54:14.683Z,77.86
2018-03-16T21:55:14.653Z,77.29
2018-03-16T21:56:14.627Z,77.67
2018-03-16T21:57:14.597Z,77.67
2018-03-16T21:58:14.576Z,78.05
2018-03-16T21:59:14.542Z,78.23
2018-03-16T22:00:14.514Z,78.90
2018-03-16T22:01:14.487Z,79.18
2018-03-16T22:02:14.460Z,79.56
2018-03-16T22:03:14.430Z,79.28
2018-03-16T22:04:14.401Z,78.61
2018-03-16T22:05:14.386Z,79.47
2018-03-16T22:06:14.405Z,79.28
2018-03-16T22:07:14.346Z,79.18
2018-03-16T22:08:14.418Z,78.23
2018-03-16T22:09:15.292Z,78.14
2018-03-16T22:10:14.240Z,78.71
2018-03-16T22:11:14.226Z,78.61
2018-03-16T22:12:14.211Z,78.52
2018-03-16T22:13:14.152Z,78.33
2018-03-16T22:14:14.121Z,78.14
2018-03-16T22:15:14.107Z,78.52
2018-03-16T22:16:14.098Z,78.90
2018-03-16T22:17:14.049Z,78.52
2018-03-16T22:18:14.033Z,78.52
2018-03-16T22:19:14.045Z,78.90
2018-03-16T22:20:13.974Z,79.37
2018-03-16T22:21:13.952Z,79.56
2018-03-16T22:22:13.954Z,79.47
2018-03-16T22:23:13.867Z,79.66
2018-03-16T22:24:13.847Z,79.09
2018-03-16T22:25:13.869Z,78.33
2018-03-16T22:26:13.787Z,78.33
2018-03-16T22:27:13.785Z,78.52
2018-03-16T22:28:13.726Z,77.95
2018-03-16T22:29:13.699Z,78.05
2018-03-16T22:30:13.672Z,78.33
2018-03-16T22:31:13.651Z,78.33
2018-03-16T22:32:13.613Z,78.99
2018-03-16T22:33:13.587Z,78.71
2018-03-16T22:34:14.229Z,79.28
2018-03-16T22:35:13.528Z,79.47
2018-03-16T22:36:13.553Z,79.18
2018-03-16T22:37:13.472Z,79.37
2018-03-16T22:38:13.446Z,79.85
2018-03-16T22:39:13.415Z,79.56
2018-03-16T22:40:13.389Z,79.47
2018-03-16T22:41:13.366Z,79.18
2018-03-16T22:42:13.331Z,79.47
2018-03-16T22:43:13.302Z,79.75
2018-03-16T22:44:13.275Z,79.18
2018-03-16T22:45:13.278Z,78.90
2018-03-16T22:46:13.258Z,78.71
2018-03-16T22:47:13.196Z,78.71
2018-03-16T22:48:13.175Z,78.71
2018-03-16T22:49:13.134Z,78.90
2018-03-16T22:50:13.106Z,78.71
2018-03-16T22:51:13.081Z,78.23
2018-03-16T22:52:13.051Z,77.67
2018-03-16T22:53:13.020Z,77.48
2018-03-16T22:54:12.993Z,77.86
2018-03-16T22:55:12.965Z,78.05
2018-03-16T22:56:12.937Z,77.86
2018-03-16T22:57:12.924Z,78.05
2018-03-16T22:58:12.881Z,76.91
2018-03-16T22:59:12.874Z,76.82
2018-03-16T23:00:12.854Z,76.25
2018-03-16T23:01:12.797Z,76.91
2018-03-16T23:02:12.768Z,77.10
2018-03-16T23:03:12.738Z,76.72
2018-03-16T23:04:12.713Z,76.91
2018-03-16T23:05:12.682Z,76.44
2018-03-16T23:06:12.657Z,76.34
2018-03-16T23:07:12.627Z,76.44
2018-03-16T23:08:12.600Z,75.49
2018-03-16T23:09:12.570Z,76.25
2018-03-16T23:10:12.541Z,75.49
2018-03-16T23:11:12.513Z,75.96
2018-03-16T23:12:12.485Z,75.96
2018-03-16T23:13:12.456Z,75.78
2018-03-16T23:14:12.431Z,75.87
2018-03-16T23:15:12.399Z,76.15
2018-03-16T23:16:12.372Z,76.44
2018-03-16T23:17:12.342Z,76.63
2018-03-16T23:18:12.317Z,76.34
2018-03-16T23:19:12.285Z,76.25
2018-03-16T23:20:12.259Z,76.44
2018-03-16T23:21:12.228Z,76.25
2018-03-16T23:22:12.201Z,76.25
2018-03-16T23:23:12.171Z,76.53